Time;durP1;ratioP1;P1;durP2;ratioP2;P2;SDS_P1;SDS_P2;PMS_P1;PMS_P2;Temp;Humidity;BMP_temperature;BMP_pressure;BME280_temperature;BME280_humidity;BME280_pressure;Samples;Min_cycle;Max_cycle;Signal;HPM_P1;HPM_P2
2023/12/30 00:01:26;;;;;;;36.13;19.65;;;;;;;7.91;100.00;101119.75;5061871;28;20040;-69
2023/12/30 00:03:51;;;;;;;37.10;20.15;;;;;;;7.92;100.00;101124.00;5060067;28;20040;-69
2023/12/30 00:06:19;;;;;;;38.85;20.08;;;;;;;7.92;100.00;101110.22;5064119;28;20033;-69
2023/12/30 00:08:45;;;;;;;44.22;21.58;;;;;;;7.90;100.00;101115.50;5068872;28;20029;-69
2023/12/30 00:11:11;;;;;;;36.00;17.52;;;;;;;7.92;100.00;101123.19;5065273;28;20041;-69
2023/12/30 00:13:39;;;;;;;37.75;20.48;;;;;;;7.91;100.00;101118.94;5067497;28;20542;-69
2023/12/30 00:16:05;;;;;;;45.65;22.30;;;;;;;7.92;100.00;101115.41;5064638;28;20048;-69
2023/12/30 00:18:31;;;;;;;42.65;20.58;;;;;;;7.93;100.00;101117.06;5064533;28;20036;-69
2023/12/30 00:20:58;;;;;;;37.22;20.98;;;;;;;7.93;100.00;101111.84;5067968;28;20089;-69
2023/12/30 00:23:23;;;;;;;38.97;19.35;;;;;;;7.92;100.00;101110.22;5060292;28;20024;-68
2023/12/30 00:25:48;;;;;;;37.83;21.08;;;;;;;7.91;100.00;101103.38;5058422;28;20035;-69
2023/12/30 00:28:14;;;;;;;39.17;20.45;;;;;;;7.88;100.00;101109.59;5063121;28;20112;-69
2023/12/30 00:30:39;;;;;;;46.85;23.00;;;;;;;7.85;100.00;101104.63;5061509;28;20501;-69
2023/12/30 00:33:05;;;;;;;45.00;21.75;;;;;;;7.86;100.00;101106.28;5062426;28;20032;-69
2023/12/30 00:35:31;;;;;;;41.03;21.45;;;;;;;7.89;100.00;101097.47;5061887;28;20040;-69
2023/12/30 00:37:56;;;;;;;38.97;20.40;;;;;;;7.92;100.00;101099.81;5062738;28;20028;-69
2023/12/30 00:40:22;;;;;;;41.28;22.52;;;;;;;7.91;100.00;101088.63;5059885;28;20043;-69
2023/12/30 00:42:47;;;;;;;39.60;20.90;;;;;;;7.92;100.00;101094.63;5062577;28;20067;-69
2023/12/30 00:45:13;;;;;;;33.65;17.67;;;;;;;7.90;100.00;101097.34;5061552;28;20189;-69
2023/12/30 00:47:38;;;;;;;42.50;21.80;;;;;;;7.90;100.00;101091.31;5060108;28;20123;-69
2023/12/30 00:50:04;;;;;;;39.75;21.85;;;;;;;7.88;100.00;101088.84;5059971;28;20473;-69
2023/12/30 00:52:29;;;;;;;38.10;21.13;;;;;;;7.87;100.00;101089.78;5058756;28;20040;-69
2023/12/30 00:54:55;;;;;;;41.72;22.30;;;;;;;7.90;100.00;101088.72;5062757;28;20028;-69
2023/12/30 00:57:20;;;;;;;37.28;21.70;;;;;;;7.90;100.00;101086.13;5061885;28;20035;-69
2023/12/30 00:59:46;;;;;;;35.53;18.55;;;;;;;7.87;100.00;101088.94;5066896;28;20065;-69
2023/12/30 01:02:11;;;;;;;36.35;18.90;;;;;;;7.84;100.00;101097.78;5062635;28;20078;-69
2023/12/30 01:04:37;;;;;;;30.05;15.82;;;;;;;7.84;100.00;101086.59;5063060;28;20039;-69
2023/12/30 01:07:02;;;;;;;29.85;16.45;;;;;;;7.79;100.00;101086.91;5064910;28;20122;-69
2023/12/30 01:09:28;;;;;;;31.38;16.23;;;;;;;7.81;100.00;101092.00;5066578;28;20036;-69
2023/12/30 01:11:53;;;;;;;41.55;17.60;;;;;;;7.77;100.00;101078.41;5066454;28;20531;-69
2023/12/30 01:14:19;;;;;;;30.55;14.73;;;;;;;7.79;100.00;101078.31;5065777;28;20062;-69
2023/12/30 01:16:44;;;;;;;33.67;15.82;;;;;;;7.78;100.00;101082.66;5065509;28;20035;-69
2023/12/30 01:19:09;;;;;;;32.20;16.05;;;;;;;7.79;100.00;101079.13;5064897;28;20095;-69
2023/12/30 01:21:35;;;;;;;30.98;14.98;;;;;;;7.81;100.00;101071.25;5069779;28;20031;-69
2023/12/30 01:24:00;;;;;;;26.08;13.70;;;;;;;7.83;100.00;101074.56;5066936;28;20036;-69
2023/12/30 01:26:26;;;;;;;33.83;15.07;;;;;;;7.84;100.00;101076.22;5075913;28;20032;-69
2023/12/30 01:28:51;;;;;;;29.80;14.38;;;;;;;7.84;100.00;101068.41;5072847;28;20040;-68
2023/12/30 01:31:18;;;;;;;28.00;16.00;;;;;;;7.84;100.00;101078.78;5071452;28;20094;-69
2023/12/30 01:33:44;;;;;;;32.53;15.90;;;;;;;7.83;100.00;101077.97;5070497;28;20024;-69
2023/12/30 01:36:10;;;;;;;29.60;15.10;;;;;;;7.83;100.00;101079.75;5068496;28;20035;-69
2023/12/30 01:38:35;;;;;;;30.40;14.88;;;;;;;7.82;100.00;101083.28;5068885;28;20056;-69
2023/12/30 01:41:01;;;;;;;32.80;16.10;;;;;;;7.80;100.00;101080.78;5067593;28;20078;-69
2023/12/30 01:43:29;;;;;;;32.03;14.90;;;;;;;7.80;100.00;101080.78;5066799;28;20029;-69
2023/12/30 01:46:07;;;;;;;25.88;14.02;;;;;;;7.81;100.00;101084.22;5072022;28;20089;-69
2023/12/30 01:48:33;;;;;;;31.98;15.70;;;;;;;7.79;100.00;101078.31;5068370;28;20042;-69
2023/12/30 01:51:00;;;;;;;32.25;15.32;;;;;;;7.77;100.00;101081.00;5070226;28;20032;-69
2023/12/30 01:53:27;;;;;;;30.20;15.20;;;;;;;7.79;100.00;101080.91;5070480;28;20482;-69
2023/12/30 01:55:54;;;;;;;26.73;14.10;;;;;;;7.79;100.00;101088.69;5070714;28;20119;-69
2023/12/30 01:58:20;;;;;;;28.52;14.57;;;;;;;7.75;100.00;101082.06;5068602;28;20409;-69
2023/12/30 02:00:54;;;;;;;30.10;14.48;;;;;;;7.76;100.00;101087.13;5073532;28;20031;-69
2023/12/30 02:03:21;;;;;;;29.45;14.98;;;;;;;7.80;100.00;101083.38;5067482;28;20048;-69
2023/12/30 02:05:47;;;;;;;34.58;16.20;;;;;;;7.82;100.00;101085.88;5069358;28;20028;-69
2023/12/30 02:08:14;;;;;;;32.13;16.00;;;;;;;7.80;100.00;101079.97;5072501;28;20054;-69
2023/12/30 02:10:40;;;;;;;33.25;16.27;;;;;;;7.80;100.00;101080.78;5073733;28;20082;-69
2023/12/30 02:13:06;;;;;;;29.27;15.65;;;;;;;7.82;100.00;101078.09;5070875;28;20024;-69
2023/12/30 02:15:31;;;;;;;31.33;15.10;;;;;;;7.84;100.00;101089.19;5066112;28;20033;-69
2023/12/30 02:17:56;;;;;;;31.08;15.27;;;;;;;7.84;100.00;101086.59;5069362;28;20377;-69
2023/12/30 02:20:23;;;;;;;25.48;13.57;;;;;;;7.83;100.00;101080.56;5067812;28;20507;-69
2023/12/30 02:22:49;;;;;;;27.30;13.35;;;;;;;7.84;100.00;101081.41;5068254;28;20128;-69
2023/12/30 02:25:15;;;;;;;27.95;15.35;;;;;;;7.85;100.00;101083.03;5068461;28;20119;-69
2023/12/30 02:27:44;;;;;;;33.80;15.57;;;;;;;7.83;100.00;101082.34;5070397;28;20040;-69
2023/12/30 02:30:10;;;;;;;36.97;15.25;;;;;;;7.85;100.00;101088.22;5068584;28;20052;-69
2023/12/30 02:32:36;;;;;;;30.77;16.25;;;;;;;7.84;100.00;101084.00;5069945;28;20488;-69
2023/12/30 02:35:01;;;;;;;28.13;14.50;;;;;;;7.85;100.00;101089.06;5066120;28;20168;-69
2023/12/30 02:37:27;;;;;;;31.17;15.15;;;;;;;7.83;100.00;101080.56;5069485;28;20450;-69
2023/12/30 02:39:53;;;;;;;28.80;12.68;;;;;;;7.85;100.00;101083.03;5066305;28;20055;-69
2023/12/30 02:42:18;;;;;;;29.52;15.27;;;;;;;7.87;100.00;101070.78;5074479;28;20032;-69
2023/12/30 02:44:43;;;;;;;30.25;15.00;;;;;;;7.86;100.00;101069.13;5064843;28;20119;-69
2023/12/30 02:47:09;;;;;;;34.67;15.45;;;;;;;7.79;100.00;101063.56;5069769;28;20051;-69
2023/12/30 02:49:34;;;;;;;28.90;14.93;;;;;;;7.78;100.00;101055.91;5066771;28;20032;-69
2023/12/30 02:52:00;;;;;;;29.80;15.45;;;;;;;7.78;100.00;101063.69;5071667;28;20470;-69
2023/12/30 02:54:27;;;;;;;30.63;15.82;;;;;;;7.78;100.00;101064.50;5068274;28;20031;-69
2023/12/30 02:56:53;;;;;;;28.50;14.77;;;;;;;7.76;100.00;101062.97;5068825;28;20033;-69
2023/12/30 02:59:18;;;;;;;35.03;15.30;;;;;;;7.77;100.00;101077.59;5070828;28;20035;-69
2023/12/30 03:01:43;;;;;;;33.63;14.93;;;;;;;7.78;100.00;101072.28;5067263;28;20078;-69
2023/12/30 03:04:09;;;;;;;34.72;15.90;;;;;;;7.79;100.00;101067.94;5070858;28;20417;-69
2023/12/30 03:06:35;;;;;;;30.05;14.93;;;;;;;7.81;100.00;101063.44;5071123;28;20482;-69
2023/12/30 03:09:01;;;;;;;29.50;14.20;;;;;;;7.83;100.00;101064.16;5073195;28;20032;-69
2023/12/30 03:11:26;;;;;;;30.42;14.80;;;;;;;7.84;100.00;101058.03;5071862;28;20055;-69
2023/12/30 03:13:51;;;;;;;35.65;17.67;;;;;;;7.82;100.00;101065.09;5068472;28;20035;-69
2023/12/30 03:16:18;;;;;;;39.33;17.20;;;;;;;7.82;100.00;101057.31;5069890;28;20032;-68
2023/12/30 03:18:45;;;;;;;38.08;18.92;;;;;;;7.90;100.00;101061.03;5070982;28;20073;-69
2023/12/30 03:21:14;;;;;;;38.63;18.60;;;;;;;7.93;100.00;101060.78;5065965;28;20032;-69
2023/12/30 03:23:40;;;;;;;36.47;18.67;;;;;;;7.97;100.00;101056.22;5071931;28;20562;-69
2023/12/30 03:26:10;;;;;;;40.67;19.38;;;;;;;7.99;100.00;101051.72;5066711;28;20070;-69
2023/12/30 03:28:36;;;;;;;39.35;20.35;;;;;;;8.04;100.00;101059.16;5063503;28;20109;-69
2023/12/30 03:31:02;;;;;;;40.58;20.83;;;;;;;8.05;100.00;101047.81;5069808;28;20072;-69
2023/12/30 03:33:28;;;;;;;42.97;20.80;;;;;;;8.07;100.00;101045.94;5064756;28;20720;-69
2023/12/30 03:35:54;;;;;;;43.40;20.70;;;;;;;8.06;100.00;101045.13;5067464;28;20024;-69
2023/12/30 03:38:20;;;;;;;47.22;20.77;;;;;;;8.05;100.00;101051.25;5062359;28;20051;-69
2023/12/30 03:40:46;;;;;;;42.17;21.30;;;;;;;7.99;100.00;101038.75;5070432;28;20043;-69
2023/12/30 03:43:12;;;;;;;38.50;18.88;;;;;;;7.94;100.00;101040.88;5068714;28;20033;-69
2023/12/30 03:45:37;;;;;;;46.17;20.40;;;;;;;7.89;100.00;101032.59;5069687;28;20032;-69
2023/12/30 03:48:03;;;;;;;43.47;20.27;;;;;;;7.87;100.00;101034.47;5070435;28;20032;-69
2023/12/30 03:50:29;;;;;;;41.78;21.83;;;;;;;7.81;100.00;101029.72;5069232;28;20040;-69
2023/12/30 03:52:54;;;;;;;46.80;21.10;;;;;;;7.76;100.00;101032.66;5066913;28;20173;-69
2023/12/30 03:55:20;;;;;;;37.90;18.23;;;;;;;7.71;100.00;101028.75;5067385;28;20068;-69
2023/12/30 03:57:45;;;;;;;41.33;19.80;;;;;;;7.63;100.00;101032.72;5067366;28;20102;-69
2023/12/30 04:00:11;;;;;;;40.60;20.08;;;;;;;7.59;100.00;101028.69;5070771;28;20044;-69
2023/12/30 04:02:37;;;;;;;41.65;19.25;;;;;;;7.61;100.00;101024.22;5060018;28;20452;-69
2023/12/30 04:05:03;;;;;;;41.85;19.85;;;;;;;7.62;100.00;101025.88;5068073;28;20032;-69
2023/12/30 04:07:29;;;;;;;42.00;20.38;;;;;;;7.64;100.00;101028.38;5064660;28;20038;-69
2023/12/30 04:09:54;;;;;;;46.55;20.60;;;;;;;7.71;100.00;101033.94;5070256;28;20025;-69
2023/12/30 04:12:20;;;;;;;43.05;20.65;;;;;;;7.71;100.00;101033.94;5070143;28;20046;-69
2023/12/30 04:14:46;;;;;;;45.95;18.58;;;;;;;7.69;100.00;101035.81;5064496;28;20155;-69
2023/12/30 04:17:12;;;;;;;30.27;17.00;;;;;;;7.65;100.00;101046.41;5068646;28;20028;-69
2023/12/30 04:19:38;;;;;;;32.58;16.98;;;;;;;7.60;100.00;101038.13;5067548;28;20020;-69
2023/12/30 04:22:04;;;;;;;29.45;16.10;;;;;;;7.49;100.00;101045.88;5067638;28;20024;-69
2023/12/30 04:24:29;;;;;;;30.00;15.43;;;;;;;7.46;100.00;101051.28;5068814;28;20098;-68
2023/12/30 04:26:54;;;;;;;29.90;16.17;;;;;;;7.46;100.00;101047.88;5069523;28;20026;-69
2023/12/30 04:29:20;;;;;;;32.92;15.93;;;;;;;7.47;100.00;101052.94;5061845;28;20372;-69
2023/12/30 04:31:45;;;;;;;31.48;16.13;;;;;;;7.52;100.00;101050.03;5064076;28;20482;-69
2023/12/30 04:34:11;;;;;;;28.85;14.73;;;;;;;7.53;100.00;101057.69;5062767;28;20032;-69
2023/12/30 04:36:36;;;;;;;27.40;14.80;;;;;;;7.56;100.00;101062.63;5065377;28;20460;-69
2023/12/30 04:39:01;;;;;;;31.38;15.45;;;;;;;7.58;100.00;101065.09;5066439;28;20036;-68
2023/12/30 04:41:27;;;;;;;26.60;14.55;;;;;;;7.58;100.00;101071.13;5064014;28;20047;-69
2023/12/30 04:43:54;;;;;;;27.05;14.80;;;;;;;7.59;100.00;101082.31;5063339;28;20034;-69
2023/12/30 04:46:20;;;;;;;28.83;15.32;;;;;;;7.60;100.00;101078.78;5071525;28;20111;-69
2023/12/30 04:48:45;;;;;;;30.15;14.45;;;;;;;7.57;100.00;101082.44;5065956;28;20100;-69
2023/12/30 04:51:11;;;;;;;25.63;13.10;;;;;;;7.55;100.00;101073.97;5066501;28;20047;-69
2023/12/30 04:53:36;;;;;;;27.63;13.55;;;;;;;7.56;100.00;101085.97;5060515;28;20043;-69
2023/12/30 04:56:02;;;;;;;29.08;14.60;;;;;;;7.56;100.00;101088.56;5068767;28;20127;-69
2023/12/30 04:58:28;;;;;;;30.73;14.63;;;;;;;7.60;100.00;101099.53;5065938;28;20040;-69
2023/12/30 05:00:53;;;;;;;28.60;13.60;;;;;;;7.58;100.00;101102.25;5066845;28;20094;-69
2023/12/30 05:03:19;;;;;;;32.88;14.65;;;;;;;7.57;100.00;101113.56;5071787;28;20028;-69
2023/12/30 05:05:44;;;;;;;28.95;14.52;;;;;;;7.53;100.00;101113.91;5063914;28;20040;-69
2023/12/30 05:08:10;;;;;;;25.33;13.77;;;;;;;7.47;100.00;101111.75;5066274;28;20061;-69
2023/12/30 05:10:36;;;;;;;27.52;14.25;;;;;;;7.41;100.00;101113.00;5061950;28;20042;-69
2023/12/30 05:13:01;;;;;;;26.70;12.88;;;;;;;7.38;100.00;101105.44;5068159;28;20041;-69
2023/12/30 05:15:27;;;;;;;34.47;13.50;;;;;;;7.38;100.00;101117.59;5065782;28;20120;-69
2023/12/30 05:17:55;;;;;;;29.20;14.00;;;;;;;7.37;100.00;101103.78;5067767;28;20029;-69
2023/12/30 05:20:20;;;;;;;24.58;13.32;;;;;;;7.38;100.00;101107.22;5066333;28;20032;-69
2023/12/30 05:22:46;;;;;;;27.98;14.55;;;;;;;7.41;100.00;101115.59;5068572;28;20043;-68
2023/12/30 05:25:12;;;;;;;26.92;13.35;;;;;;;7.46;100.00;101112.69;5068150;28;20028;-69
2023/12/30 05:27:38;;;;;;;27.02;14.07;;;;;;;7.49;100.00;101113.31;5064660;28;20021;-69
2023/12/30 05:30:07;;;;;;;28.13;13.52;;;;;;;7.50;100.00;101112.38;5066922;28;20041;-68
2023/12/30 05:32:33;;;;;;;28.73;13.45;;;;;;;7.52;100.00;101118.28;5065447;28;20033;-69
2023/12/30 05:34:59;;;;;;;27.63;12.50;;;;;;;7.51;100.00;101114.03;5073895;28;20128;-68
2023/12/30 05:37:25;;;;;;;28.55;13.95;;;;;;;7.51;100.00;101114.03;5066138;28;20111;-69
2023/12/30 05:39:50;;;;;;;26.33;13.48;;;;;;;7.54;100.00;101115.56;5071114;28;20062;-69
2023/12/30 05:42:16;;;;;;;28.20;14.63;;;;;;;7.55;100.00;101118.06;5064683;28;20039;-70
2023/12/30 05:44:41;;;;;;;23.50;12.82;;;;;;;7.55;100.00;101117.22;5061828;28;20109;-69
2023/12/30 05:47:07;;;;;;;29.88;13.85;;;;;;;7.54;100.00;101118.16;5067803;28;20367;-69
2023/12/30 05:49:33;;;;;;;28.42;15.10;;;;;;;7.49;100.00;101113.31;5071683;28;20123;-69
2023/12/30 05:51:58;;;;;;;28.80;14.43;;;;;;;7.52;100.00;101110.50;5063512;28;20040;-69
2023/12/30 05:54:26;;;;;;;31.45;14.60;;;;;;;7.59;100.00;101114.28;5066612;28;20039;-69
2023/12/30 05:56:51;;;;;;;25.52;14.25;;;;;;;7.62;100.00;101118.41;5069662;28;20603;-69
2023/12/30 05:59:17;;;;;;;30.20;15.23;;;;;;;7.65;100.00;101121.63;5074119;28;20032;-69
2023/12/30 06:01:46;;;;;;;27.95;14.88;;;;;;;7.68;100.00;101117.16;5069974;28;20113;-69
2023/12/30 06:04:13;;;;;;;30.75;14.73;;;;;;;7.68;100.00;101119.75;5066234;28;20029;-69
2023/12/30 06:06:39;;;;;;;28.90;14.52;;;;;;;7.67;100.00;101124.09;5065313;28;20036;-69
2023/12/30 06:09:05;;;;;;;27.67;14.05;;;;;;;7.69;100.00;101131.78;5064089;28;20036;-69
2023/12/30 06:11:30;;;;;;;28.58;14.30;;;;;;;7.73;100.00;101134.03;5065314;28;20025;-69
2023/12/30 06:13:56;;;;;;;26.45;14.18;;;;;;;7.72;100.00;101137.56;5067452;28;20016;-69
2023/12/30 06:16:22;;;;;;;27.08;12.98;;;;;;;7.71;100.00;101132.50;5065491;28;20040;-69
2023/12/30 06:18:47;;;;;;;27.05;14.20;;;;;;;7.68;100.00;101133.53;5072254;28;20112;-69
2023/12/30 06:21:13;;;;;;;27.95;14.45;;;;;;;7.69;100.00;101136.97;5066967;28;20076;-69
2023/12/30 06:23:38;;;;;;;31.40;13.45;;;;;;;7.70;100.00;101142.03;5068209;28;20029;-69
2023/12/30 06:26:04;;;;;;;30.80;14.68;;;;;;;7.68;100.00;101141.31;5070151;28;20439;-69
2023/12/30 06:28:29;;;;;;;24.77;13.32;;;;;;;7.65;100.00;101139.78;5068171;28;20097;-69
2023/12/30 06:30:55;;;;;;;29.00;13.95;;;;;;;7.66;100.00;101140.59;5070247;28;20187;-69
2023/12/30 06:33:22;;;;;;;30.08;14.82;;;;;;;7.68;100.00;101140.50;5066320;28;20033;-69
2023/12/30 06:35:47;;;;;;;31.30;14.93;;;;;;;7.70;100.00;101146.41;5063485;28;20037;-69
2023/12/30 06:38:14;;;;;;;28.63;13.57;;;;;;;7.72;100.00;101141.94;5072260;28;20020;-69
2023/12/30 06:40:41;;;;;;;30.98;14.20;;;;;;;7.72;100.00;101152.31;5069938;28;20045;-69
2023/12/30 06:43:07;;;;;;;28.23;13.27;;;;;;;7.75;100.00;101152.09;5073055;28;20497;-69
2023/12/30 06:45:33;;;;;;;27.83;13.00;;;;;;;7.79;100.00;101145.75;5064410;28;20052;-69
2023/12/30 06:47:58;;;;;;;28.77;13.95;;;;;;;7.81;100.00;101154.25;5070788;28;20056;-69
2023/12/30 06:50:24;;;;;;;28.02;13.00;;;;;;;7.84;100.00;101161.81;5062849;28;20044;-69
2023/12/30 06:52:50;;;;;;;26.30;13.60;;;;;;;7.82;100.00;101159.34;5061770;28;20516;-72
2023/12/30 06:55:15;;;;;;;25.38;13.32;;;;;;;7.81;100.00;101160.28;5073865;28;20051;-69
2023/12/30 06:57:41;;;;;;;33.80;13.77;;;;;;;7.84;100.00;101161.81;5071159;28;20040;-69
2023/12/30 07:00:07;;;;;;;23.40;11.88;;;;;;;7.83;100.00;101163.59;5066765;28;21160;-69
2023/12/30 07:02:36;;;;;;;31.98;12.95;;;;;;;7.82;100.00;101167.13;5071875;28;20081;-69
2023/12/30 07:05:01;;;;;;;27.73;13.13;;;;;;;7.86;100.00;101167.72;5066878;28;20136;-69
2023/12/30 07:07:26;;;;;;;26.80;13.20;;;;;;;7.87;100.00;101166.78;5078871;28;20517;-69
2023/12/30 07:09:52;;;;;;;23.10;12.07;;;;;;;7.88;100.00;101171.88;5066689;28;20383;-69
2023/12/30 07:12:17;;;;;;;22.30;11.75;;;;;;;7.88;100.00;101158.91;5070420;28;20035;-69
2023/12/30 07:14:43;;;;;;;29.48;12.55;;;;;;;7.90;100.00;101167.41;5059877;28;20991;-69
2023/12/30 07:17:08;;;;;;;24.00;11.98;;;;;;;7.92;100.00;101167.28;5063247;28;20035;-69
2023/12/30 07:19:34;;;;;;;23.52;13.07;;;;;;;7.93;100.00;101164.59;5060433;28;20038;-69
2023/12/30 07:21:59;;;;;;;29.85;12.70;;;;;;;7.93;100.00;101167.19;5062628;28;20063;-69
2023/12/30 07:24:25;;;;;;;23.58;11.85;;;;;;;7.94;100.00;101176.63;5061136;28;20487;-69
2023/12/30 07:26:51;;;;;;;26.60;10.93;;;;;;;7.96;100.00;101166.13;5064108;28;20027;-69
2023/12/30 07:29:16;;;;;;;28.30;11.43;;;;;;;7.95;100.00;101185.22;5070520;28;20466;-68
2023/12/30 07:31:42;;;;;;;21.05;10.18;;;;;;;7.96;100.00;101179.94;5066510;28;20047;-69
2023/12/30 07:34:08;;;;;;;21.40;11.23;;;;;;;8.00;100.00;101175.34;5064405;28;20504;-69
2023/12/30 07:36:33;;;;;;;24.17;10.52;;;;;;;8.04;100.00;101183.72;5069297;28;20036;-69
2023/12/30 07:38:59;;;;;;;24.80;10.10;;;;;;;8.07;100.00;101189.50;5066648;28;20474;-69
2023/12/30 07:41:24;;;;;;;20.15;9.73;;;;;;;8.10;100.00;101188.47;5061066;28;20036;-69
2023/12/30 07:43:50;;;;;;;21.13;11.02;;;;;;;8.14;100.00;101193.31;5064634;28;20033;-69
2023/12/30 07:46:15;;;;;;;21.42;9.30;;;;;;;8.14;100.00;101192.50;5072554;28;20477;-69
2023/12/30 07:48:42;;;;;;;21.35;10.35;;;;;;;8.15;100.00;101189.78;5070478;28;20044;-69
2023/12/30 07:51:07;;;;;;;18.27;9.25;;;;;;;8.18;100.00;101194.75;5071095;28;20047;-69
2023/12/30 07:53:33;;;;;;;20.70;10.75;;;;;;;8.20;100.00;101200.69;5067931;28;20082;-69
2023/12/30 07:55:58;;;;;;;22.20;10.40;;;;;;;8.21;100.00;101202.34;5070387;28;20064;-68
2023/12/30 07:58:24;;;;;;;25.63;12.23;;;;;;;8.24;100.00;101212.50;5069371;28;20459;-69
2023/12/30 08:00:49;;;;;;;24.98;12.20;;;;;;;8.26;100.00;101196.81;5067829;28;21416;-69
2023/12/30 08:03:15;;;;;;;23.73;11.27;;;;;;;8.28;100.00;101202.72;5068958;28;20040;-69
2023/12/30 08:05:40;;;;;;;26.88;11.65;;;;;;;8.34;100.00;101204.06;5069380;28;20058;-69
2023/12/30 08:08:08;;;;;;;22.60;11.77;;;;;;;8.39;100.00;101200.19;5070663;28;20032;-69
2023/12/30 08:10:34;;;;;;;20.10;11.57;;;;;;;8.39;100.00;101204.56;5065209;28;20059;-69
2023/12/30 08:12:59;;;;;;;25.80;10.65;;;;;;;8.37;100.00;101196.88;5068818;28;20485;-69
2023/12/30 08:15:26;;;;;;;22.95;10.45;;;;;;;8.40;100.00;101199.25;5070279;28;20036;-69
2023/12/30 08:17:52;;;;;;;18.73;9.88;;;;;;;8.42;100.00;101212.13;5067438;28;20072;-68
2023/12/30 08:20:17;;;;;;;23.77;10.63;;;;;;;8.43;100.00;101206.84;5067678;28;20077;-68
2023/12/30 08:22:43;;;;;;;23.30;9.90;;;;;;;8.46;100.00;101203.19;5068783;28;20082;-68
2023/12/30 08:25:09;;;;;;;25.02;10.57;;;;;;;8.48;100.00;101196.94;5071310;28;20032;-68
2023/12/30 08:27:35;;;;;;;19.52;9.38;;;;;;;8.49;100.00;101197.75;5071334;28;20028;-68
2023/12/30 08:30:00;;;;;;;22.25;10.18;;;;;;;8.51;100.00;101207.06;5068874;28;20079;-69
2023/12/30 08:32:26;;;;;;;18.65;8.98;;;;;;;8.52;100.00;101195.75;5067100;28;20498;-69
2023/12/30 08:34:54;;;;;;;19.13;10.73;;;;;;;8.53;100.00;101193.97;5070789;28;20400;-69
2023/12/30 08:37:19;;;;;;;20.15;10.13;;;;;;;8.59;100.00;101193.53;5068098;28;20124;-69
2023/12/30 08:39:45;;;;;;;21.58;9.63;;;;;;;8.72;100.00;101206.44;5066013;28;20630;-69
2023/12/30 08:42:11;;;;;;;19.67;9.82;;;;;;;8.76;100.00;101215.66;5066776;28;20028;-69
2023/12/30 08:44:43;;;;;;;22.38;10.25;;;;;;;8.78;100.00;101212.00;5067714;28;20138;-69
2023/12/30 08:47:09;;;;;;;19.15;9.45;;;;;;;8.79;99.77;101213.66;5069246;28;20457;-69
2023/12/30 08:49:35;;;;;;;16.90;8.95;;;;;;;8.84;100.00;101214.13;5070985;28;20035;-69
2023/12/30 08:52:01;;;;;;;23.98;9.65;;;;;;;8.90;100.00;101220.66;5069491;28;20134;-69
2023/12/30 08:54:26;;;;;;;24.33;9.15;;;;;;;8.96;100.00;101228.81;5063417;28;20047;-69
2023/12/30 08:56:53;;;;;;;20.08;9.02;;;;;;;9.03;100.00;101223.97;5063682;28;20033;-69
2023/12/30 08:59:20;;;;;;;26.08;10.27;;;;;;;9.11;100.00;101220.78;5070581;28;20486;-69
2023/12/30 09:01:45;;;;;;;22.38;10.35;;;;;;;9.19;100.00;101224.47;5064429;28;20024;-69
2023/12/30 09:04:11;;;;;;;23.55;10.45;;;;;;;9.28;100.00;101233.34;5068435;28;20047;-69
2023/12/30 09:06:36;;;;;;;22.63;10.93;;;;;;;9.24;100.00;101232.75;5066603;28;20028;-69
2023/12/30 09:09:04;;;;;;;17.88;9.32;;;;;;;9.16;99.28;101235.09;5065662;28;20134;-69
2023/12/30 09:11:32;;;;;;;18.45;8.40;;;;;;;9.03;97.04;101228.31;5061432;28;20514;-69
2023/12/30 09:13:58;;;;;;;13.80;8.23;;;;;;;8.94;96.56;101237.66;5059900;28;20362;-69
2023/12/30 09:16:24;;;;;;;20.05;9.45;;;;;;;8.92;96.19;101234.34;5067565;28;20113;-69
2023/12/30 09:18:49;;;;;;;17.63;9.18;;;;;;;8.91;96.67;101243.09;5067147;28;20182;-69
2023/12/30 09:21:15;;;;;;;20.60;9.55;;;;;;;8.93;97.72;101241.22;5068889;28;20169;-69
2023/12/30 09:23:40;;;;;;;17.80;8.88;;;;;;;8.96;97.78;101241.81;5070073;28;20033;-69
2023/12/30 09:26:09;;;;;;;20.92;8.88;;;;;;;8.92;96.16;101247.34;5071477;28;20036;-69
2023/12/30 09:28:34;;;;;;;18.58;8.27;;;;;;;8.91;95.62;101249.13;5073633;28;20035;-69
2023/12/30 09:31:01;;;;;;;18.95;7.95;;;;;;;8.93;96.55;101243.81;5070763;28;20048;-68
2023/12/30 09:33:26;;;;;;;17.20;7.82;;;;;;;8.91;96.79;101250.91;5072370;28;20031;-69
2023/12/30 09:35:54;;;;;;;17.05;7.65;;;;;;;8.86;97.81;101250.41;5066025;28;20036;-69
2023/12/30 09:38:22;;;;;;;17.80;8.50;;;;;;;8.86;98.50;101256.44;5069747;28;20374;-69
2023/12/30 09:40:49;;;;;;;19.10;7.88;;;;;;;8.81;98.34;101258.53;5065142;28;20025;-69
2023/12/30 09:43:24;;;;;;;19.67;9.13;;;;;;;8.82;99.30;101257.59;5071340;28;20393;-69
2023/12/30 09:45:51;;;;;;;18.83;9.53;;;;;;;8.85;99.03;101261.75;5068621;28;20436;-71
2023/12/30 09:48:20;;;;;;;15.43;8.80;;;;;;;8.88;100.00;101258.91;5069479;28;20044;-72
2023/12/30 09:50:49;;;;;;;16.38;8.45;;;;;;;8.88;100.00;101254.53;5069263;28;20037;-71
2023/12/30 09:53:16;;;;;;;18.92;9.55;;;;;;;8.86;99.66;101253.00;5070205;28;20558;-71
2023/12/30 09:55:44;;;;;;;23.33;9.50;;;;;;;8.90;100.00;101257.03;5065937;28;20037;-71
2023/12/30 09:58:10;;;;;;;17.95;9.05;;;;;;;8.88;99.89;101258.91;5063921;28;20047;-71
2023/12/30 10:00:39;;;;;;;20.70;8.75;;;;;;;8.88;98.94;101254.53;5068898;28;20033;-71
2023/12/30 10:03:06;;;;;;;18.30;8.50;;;;;;;8.90;99.43;101249.25;5068159;28;20131;-71
2023/12/30 10:05:31;;;;;;;16.52;8.35;;;;;;;8.95;98.33;101242.75;5070952;28;20034;-71
2023/12/30 10:07:57;;;;;;;17.80;8.07;;;;;;;9.01;98.74;101251.00;5069804;28;20397;-72
2023/12/30 10:10:44;;;;;;;18.20;7.70;;;;;;;9.06;98.12;101241.91;5070024;28;20047;-71
2023/12/30 10:13:13;;;;;;;16.80;7.43;;;;;;;9.09;96.92;101246.88;5065763;28;20037;-68
2023/12/30 10:15:40;;;;;;;15.65;7.25;;;;;;;9.08;97.56;101247.00;5069397;28;23087;-68
2023/12/30 10:18:09;;;;;;;16.45;7.90;;;;;;;9.10;97.45;101240.75;5065588;28;20492;-68
2023/12/30 10:20:38;;;;;;;17.92;7.55;;;;;;;9.10;96.89;101242.53;5064581;28;20102;-68
2023/12/30 10:23:03;;;;;;;14.57;7.65;;;;;;;9.06;96.05;101239.31;5062725;28;20033;-68
2023/12/30 10:25:29;;;;;;;15.15;6.88;;;;;;;9.05;95.33;101236.84;5063812;28;20039;-68
2023/12/30 10:27:55;;;;;;;12.00;7.05;;;;;;;9.05;96.06;101235.06;5068292;28;20044;-68
2023/12/30 10:30:20;;;;;;;16.42;7.60;;;;;;;9.06;95.19;101234.13;5067349;28;20350;-68
2023/12/30 10:32:46;;;;;;;17.30;8.25;;;;;;;9.10;94.51;101239.91;5060442;28;20033;-68
2023/12/30 10:35:15;;;;;;;12.27;6.80;;;;;;;9.11;94.06;101231.19;5065145;28;20558;-68
2023/12/30 10:37:44;;;;;;;14.25;7.05;;;;;;;9.10;93.61;101235.56;5064410;28;20045;-69
2023/12/30 10:40:10;;;;;;;13.60;7.05;;;;;;;9.10;94.03;101238.16;5063692;28;20490;-68
2023/12/30 10:42:40;;;;;;;17.58;6.40;;;;;;;9.12;93.36;101238.03;5061153;28;20041;-68
2023/12/30 10:45:07;;;;;;;15.07;6.90;;;;;;;9.12;93.49;101238.88;5070011;28;20409;-68
2023/12/30 10:47:38;;;;;;;13.88;7.22;;;;;;;9.13;94.14;101234.50;5070369;28;21191;-68
2023/12/30 10:50:09;;;;;;;16.40;7.50;;;;;;;9.14;94.56;101230.94;5067820;28;20025;-68
2023/12/30 10:52:39;;;;;;;12.73;6.90;;;;;;;9.18;94.12;101238.41;5064346;28;20048;-68
2023/12/30 10:55:14;;;;;;;12.57;6.40;;;;;;;9.19;93.23;101232.25;5070808;28;20024;-68
2023/12/30 10:57:46;;;;;;;12.40;6.07;;;;;;;9.18;92.68;101227.19;5074995;28;20056;-68
2023/12/30 11:00:14;;;;;;;16.10;6.80;;;;;;;9.18;93.00;101225.41;5064966;28;20046;-68
2023/12/30 11:02:41;;;;;;;16.45;5.53;;;;;;;9.23;92.29;101225.06;5067765;28;23359;-68
2023/12/30 11:05:11;;;;;;;13.32;6.95;;;;;;;9.24;91.79;101218.91;5067408;28;20081;-68
2023/12/30 11:07:37;;;;;;;13.57;6.97;;;;;;;9.30;92.48;101221.03;5064316;28;20032;-68